BBC Switzerland — DGFL2 — position and weather

sailwx.info

Track history (hours):
 
Tides and Currents Weather Stations Pressure Air Temp Water Temp Dewpoint Dewpoint Depression Visibility Wind Speed Wind Dir Waves Ship Positions

BBC Switzerland

Last reported at 2017-May-25 06:10 UTC. Time now 2017-May-26 22:52 UTC.
Position N 35°52' E 015°58'.

Length 119 m; draft 7 m.

Type: Cargo ship. MMSI: 218629000.

Date/timePositionNaut miles runAvg speedWind from/ knotsBaromVisibWave heightAir tempDewpointWater temp
2017-May-25 06:10N 35°52' E 015°58'215.0
2017-May-25 06:00N 35°53' E 015°55'715.1
2017-May-25 05:30N 35°55' E 015°47'1615.1
2017-May-25 04:27N 35°59' E 015°28'715.2
2017-May-25 04:00N 36°01' E 015°19'815.6
2017-May-25 03:30N 36°04' E 015°11'1015.8
2017-May-25 02:52N 36°08' E 014°59'615.7
2017-May-25 02:30N 36°10' E 014°53'815.7
2017-May-25 02:00N 36°13' E 014°43'815.7
2017-May-25 01:30N 36°16' E 014°34'815.7
2017-May-25 01:00N 36°18' E 014°25'815.5
2017-May-25 00:30N 36°21' E 014°16'815.4
2017-May-25 00:00N 36°24' E 014°08'815.3
2017-May-24 23:29N 36°28' E 013°59'715.3
2017-May-24 23:00N 36°30' E 013°50'815.1
2017-May-24 22:30N 36°33' E 013°41'815.0
2017-May-24 22:00N 36°36' E 013°33'715.1
2017-May-24 21:30N 36°38' E 013°24'815.2
2017-May-24 21:00N 36°41' E 013°15'715.2
2017-May-24 20:30N 36°44' E 013°06'815.3
2017-May-24 20:00N 36°47' E 012°57'815.4
2017-May-24 19:30N 36°49' E 012°48'815.6
2017-May-24 19:00N 36°52' E 012°39'815.7
2017-May-24 18:29N 36°55' E 012°30'815.3
2017-May-24 17:58N 36°58' E 012°21'715.3
2017-May-24 17:29N 37°01' E 012°12'7714.7
2017-May-24 12:15N 37°28' E 010°42'76414.7
2017-May-22 08:16N 36°01' W 005°06'414.3
2017-May-22 08:01N 36°00' W 005°10'815.1
2017-May-22 07:30N 35°59' W 005°19'815.2
2017-May-22 07:00N 35°57' W 005°28'25211.4
2017-May-21 08:52N 38°09' W 009°57'513.6
2017-May-21 08:30N 38°14' W 009°58'714.0
2017-May-21 08:00N 38°20' W 010°01'2713.8
2017-May-21 06:05N 38°47' W 010°07'613.4
2017-May-21 05:37N 38°53' W 010°07'213.3
2017-May-21 05:29N 38°54' W 010°07'613.4
2017-May-21 05:00N 39°01' W 010°07'713.8
2017-May-21 04:30N 39°08' W 010°08'714.1
2017-May-21 04:00N 39°15' W 010°08'713.7
2017-May-21 03:30N 39°22' W 010°08'713.9
2017-May-21 03:00N 39°29' W 010°08'713.8
2017-May-21 02:30N 39°36' W 010°08'713.9
2017-May-21 02:00N 39°42' W 010°08'713.9
2017-May-21 01:30N 39°49' W 010°09'713.9
2017-May-21 01:00N 39°56' W 010°09'714.0
2017-May-21 00:30N 40°03' W 010°09'714.0
2017-May-21 00:00N 40°10' W 010°09'714.0
2017-May-20 23:30N 40°17' W 010°09'713.8
2017-May-20 23:01N 40°24' W 010°09'713.9
2017-May-20 22:30N 40°31' W 010°09'713.7
2017-May-20 22:00N 40°38' W 010°09'713.8
2017-May-20 21:30N 40°45' W 010°09'713.9
2017-May-20 21:00N 40°52' W 010°09'713.8
2017-May-20 20:30N 40°59' W 010°09'713.9
2017-May-20 20:00N 41°06' W 010°09'714.1
2017-May-20 19:30N 41°13' W 010°09'713.9
2017-May-20 19:00N 41°20' W 010°08'713.8
2017-May-20 18:30N 41°27' W 010°08'714.0
2017-May-20 18:00N 41°34' W 010°08'55412.6
2017-May-18 22:05N 49°39' W 003°45'412.5
2017-May-18 21:44N 49°41' W 003°38'312.5
2017-May-18 21:28N 49°43' W 003°34'612.6
2017-May-18 21:00N 49°46' W 003°26'612.8
2017-May-18 20:30N 49°49' W 003°18'713.1
2017-May-18 19:59N 49°52' W 003°08'613.5
2017-May-18 19:30N 49°55' W 002°60'713.6
2017-May-18 19:00N 49°58' W 002°50'713.8
2017-May-18 18:30N 50°00' W 002°40'8612.4
2017-May-18 11:34N 50°24' W 000°30'112.0
2017-May-18 11:30N 50°24' W 000°29'612.3
2017-May-18 11:00N 50°26' W 000°20'713.1
2017-May-18 10:30N 50°27' W 000°10'713.4
2017-May-18 10:00N 50°29' E 000°00'713.9
2017-May-18 09:30N 50°31' E 000°11'714.4
2017-May-18 09:00N 50°33' E 000°22'714.7
2017-May-18 08:30N 50°35' E 000°33'914.4
2017-May-18 07:55N 50°39' E 000°45'614.2
2017-May-18 07:30N 50°43' E 000°52'713.9
2017-May-18 07:00N 50°47' E 001°01'713.4
2017-May-18 06:29N 50°51' E 001°10'612.8
2017-May-18 06:00N 50°55' E 001°18'612.4
2017-May-18 05:30N 50°59' E 001°24'611.9
2017-May-18 05:00N 51°03' E 001°31'611.2
2017-May-18 04:31N 51°07' E 001°38'611.5
2017-May-18 04:01N 51°11' E 001°44'612.0
2017-May-18 03:30N 51°16' E 001°50'612.8
2017-May-18 03:00N 51°21' E 001°55'611.8
2017-May-18 02:31N 51°24' E 002°04'713.1
2017-May-18 02:01N 51°22' E 002°13'713.2
2017-May-18 01:30N 51°22' E 002°24'813.6
2017-May-18 00:53N 51°23' E 002°37'510.0
2017-May-18 00:21N 51°22' E 002°46'514.2
2017-May-18 00:00N 51°23' E 002°54'713.8
2017-May-17 23:30N 51°24' E 003°05'714.3
2017-May-17 23:01N 51°25' E 003°16'714.3
2017-May-17 22:30N 51°25' E 003°28'611.9
2017-May-17 22:00N 51°26' E 003°37'612.4
2017-May-17 21:30N 51°22' E 003°45'714.0
2017-May-17 21:00N 51°22' E 003°56'4 8.6
2017-May-17 20:30N 51°24' E 004°02'510.7
2017-May-17 20:00N 51°24' E 004°10'510.4
2017-May-17 19:30N 51°20' E 004°16'4 8.1
2017-May-17 19:01N 51°17' E 004°20'0 0.0
2017-May-17 18:31N 51°17' E 004°20'0 0.3
2017-May-17 18:01N 51°17' E 004°20'2 3.5
2017-May-17 17:31N 51°15' E 004°22'1 1.8
2017-May-17 17:00N 51°15' E 004°23'0 0.0
2017-May-17 16:30N 51°15' E 004°23'0 0.0
2017-May-17 16:00N 51°15' E 004°23'0 0.0
2017-May-17 15:30N 51°15' E 004°23'0 0.0
2017-May-17 15:00N 51°15' E 004°23'0 0.0
2017-May-17 14:00N 51°15' E 004°23'0 0.0
2017-May-17 13:30N 51°15' E 004°23'0 0.0
2017-May-17 13:00N 51°15' E 004°23'0 0.0
2017-May-17 12:30N 51°15' E 004°23'0 0.0
2017-May-17 12:00N 51°15' E 004°23'0 0.0
2017-May-17 11:30N 51°15' E 004°23'0 0.0
2017-May-17 11:00N 51°15' E 004°23'0 0.0
2017-May-17 10:30N 51°15' E 004°23'0 0.0
2017-May-17 10:00N 51°15' E 004°23'0 0.0
2017-May-17 09:30N 51°15' E 004°23'0 0.0
2017-May-17 09:00N 51°15' E 004°23'0 0.0
2017-May-17 08:30N 51°15' E 004°23'0 0.0
2017-May-17 08:00N 51°15' E 004°23'0 0.0
2017-May-17 07:30N 51°15' E 004°23'0 0.0
2017-May-17 07:00N 51°15' E 004°23'0 0.0
2017-May-17 06:30N 51°15' E 004°23'0 0.0
2017-May-17 06:00N 51°15' E 004°23'0 0.0
2017-May-17 05:27N 51°15' E 004°23'0 0.0
2017-May-17 05:00N 51°15' E 004°23'0 0.0
2017-May-17 04:30N 51°15' E 004°23'0 0.0
2017-May-17 04:00N 51°15' E 004°23'0 0.0
2017-May-17 03:30N 51°15' E 004°23'0 0.0
2017-May-17 03:00N 51°15' E 004°23'0 0.0
2017-May-17 02:30N 51°15' E 004°23'0 0.0
2017-May-17 02:00N 51°15' E 004°23'0 0.0
2017-May-17 01:30N 51°15' E 004°23'0 0.0
2017-May-17 01:00N 51°15' E 004°23'0 0.0
2017-May-17 00:30N 51°15' E 004°23'0 0.0
2017-May-17 00:00N 51°15' E 004°23'0 0.0
2017-May-16 23:30N 51°15' E 004°23'0 0.0
2017-May-16 23:00N 51°15' E 004°23'0 0.0
2017-May-16 22:30N 51°15' E 004°23'0 0.0
2017-May-16 22:00N 51°15' E 004°23'0 0.0
2017-May-16 21:30N 51°15' E 004°23'0 0.0
2017-May-16 21:00N 51°15' E 004°23'0 0.0
2017-May-16 20:30N 51°15' E 004°23'0 0.0
2017-May-16 20:00N 51°15' E 004°23'0 0.0
2017-May-16 19:30N 51°15' E 004°23'0 0.0
2017-May-16 19:00N 51°15' E 004°23'0 0.0
2017-May-16 18:30N 51°15' E 004°23'0 0.0
2017-May-16 18:00N 51°15' E 004°23'0 0.0
2017-May-16 17:30N 51°15' E 004°23'0 0.0
2017-May-16 17:00N 51°15' E 004°23'0 0.0
2017-May-16 16:30N 51°15' E 004°23'0 0.0
2017-May-16 16:00N 51°15' E 004°23'0 0.0
2017-May-16 15:30N 51°15' E 004°23'0 0.0
2017-May-16 15:00N 51°15' E 004°23'0 0.0
2017-May-16 14:30N 51°15' E 004°23'0 0.0
2017-May-16 13:30N 51°15' E 004°23'0 0.0
2017-May-16 13:00N 51°15' E 004°23'0 0.0
2017-May-16 12:30N 51°15' E 004°23'0 0.0
2017-May-16 12:00N 51°15' E 004°23'0 0.0
2017-May-16 11:30N 51°15' E 004°23'0 0.0
2017-May-16 11:00N 51°15' E 004°23'0 0.0
2017-May-16 10:30N 51°15' E 004°23'0 0.0
2017-May-16 10:00N 51°15' E 004°23'0 0.0
2017-May-16 09:30N 51°15' E 004°23'0 0.0
2017-May-16 09:00N 51°15' E 004°23'0 0.0
2017-May-16 08:30N 51°15' E 004°23'0 0.0
2017-May-16 07:57N 51°15' E 004°23'0 0.0
2017-May-16 07:30N 51°15' E 004°23'0 0.0
2017-May-16 07:00N 51°15' E 004°23'0 0.0
2017-May-16 06:30N 51°15' E 004°23'0 0.0
2017-May-16 06:00N 51°15' E 004°23'0 0.0
2017-May-16 05:30N 51°15' E 004°23'0 0.0
2017-May-16 05:00N 51°15' E 004°23'0 0.0
2017-May-16 04:30N 51°15' E 004°23'0 0.0
2017-May-16 04:00N 51°15' E 004°23'0 0.0
2017-May-16 03:30N 51°15' E 004°23'0 0.0
2017-May-16 03:00N 51°15' E 004°23'0 0.0
2017-May-16 02:30N 51°15' E 004°23'0 0.0
2017-May-16 02:00N 51°15' E 004°23'0 0.0
2017-May-16 01:30N 51°15' E 004°23'0 0.0
2017-May-16 01:00N 51°15' E 004°23'0 0.0
2017-May-16 00:30N 51°15' E 004°23'0 0.0
2017-May-16 00:00N 51°15' E 004°23'0 0.0
2017-May-15 23:30N 51°15' E 004°23'0 0.0
2017-May-15 23:00N 51°15' E 004°23'0 0.0
2017-May-15 22:30N 51°15' E 004°23'0 0.0
2017-May-15 22:00N 51°15' E 004°23'0 0.0
2017-May-15 21:30N 51°15' E 004°23'0 0.0
2017-May-15 21:00N 51°15' E 004°23'0 0.0
2017-May-15 20:30N 51°15' E 004°23'0 0.0
2017-May-15 20:00N 51°15' E 004°23'0 0.0
2017-May-15 19:30N 51°15' E 004°23'0 0.0
2017-May-15 19:00N 51°15' E 004°23'0 0.0
2017-May-15 18:30N 51°15' E 004°23'0 0.0
2017-May-15 18:00N 51°15' E 004°23'0 0.0
2017-May-15 17:30N 51°15' E 004°23'0 0.0
2017-May-15 17:00N 51°15' E 004°23'0 0.0
2017-May-15 16:30N 51°15' E 004°23'0 0.0
2017-May-15 16:00N 51°15' E 004°23'0 0.0
2017-May-15 15:30N 51°15' E 004°23'0 0.0
2017-May-15 15:00N 51°15' E 004°23'0 0.0
2017-May-15 13:59N 51°15' E 004°23'0 0.0
2017-May-15 13:29N 51°15' E 004°23'0 0.0
2017-May-15 12:59N 51°15' E 004°23'0 0.0
2017-May-15 12:29N 51°15' E 004°23'1 1.1
2017-May-15 12:00N 51°15' E 004°22'3 5.5
2017-May-15 11:30N 51°17' E 004°20'4 7.5
2017-May-15 11:01N 51°21' E 004°18'0 0.4
2017-May-15 10:28N 51°21' E 004°17'0 0.0
2017-May-15 09:55N 51°21' E 004°17'1 2.2
2017-May-15 09:30N 51°21' E 004°16'3 6.3
2017-May-15 09:00N 51°23' E 004°13'4 7.8
2017-May-15 08:30N 51°22' E 004°07'4 8.3
2017-May-15 08:01N 51°25' E 004°02'4 7.1
2017-May-15 07:31N 51°23' E 003°57'510.1
2017-May-15 07:00N 51°21' E 003°50'510.8
2017-May-15 06:30N 51°23' E 003°42'  
Track history (hours):
 
Tides and Currents Weather Stations Pressure Air Temp Water Temp Dewpoint Dewpoint Depression Visibility Wind Speed Wind Dir Waves Ship Positions

BBC Switzerland

Last reported at 2017-May-25 06:10 UTC. Time now 2017-May-26 22:52 UTC.
Position N 35°52' E 015°58'.

Length 119 m; draft 7 m.

Type: Cargo ship. MMSI: 218629000.

Date/timePositionNaut miles runAvg speedWind from/ knotsBaromVisibWave heightAir tempDewpointWater temp
2017-May-25 06:10N 35°52' E 015°58'215.0
2017-May-25 06:00N 35°53' E 015°55'715.1
2017-May-25 05:30N 35°55' E 015°47'1615.1
2017-May-25 04:27N 35°59' E 015°28'715.2
2017-May-25 04:00N 36°01' E 015°19'815.6
2017-May-25 03:30N 36°04' E 015°11'1015.8
2017-May-25 02:52N 36°08' E 014°59'615.7
2017-May-25 02:30N 36°10' E 014°53'815.7
2017-May-25 02:00N 36°13' E 014°43'815.7
2017-May-25 01:30N 36°16' E 014°34'815.7
2017-May-25 01:00N 36°18' E 014°25'815.5
2017-May-25 00:30N 36°21' E 014°16'815.4
2017-May-25 00:00N 36°24' E 014°08'815.3
2017-May-24 23:29N 36°28' E 013°59'715.3
2017-May-24 23:00N 36°30' E 013°50'815.1
2017-May-24 22:30N 36°33' E 013°41'815.0
2017-May-24 22:00N 36°36' E 013°33'715.1
2017-May-24 21:30N 36°38' E 013°24'815.2
2017-May-24 21:00N 36°41' E 013°15'715.2
2017-May-24 20:30N 36°44' E 013°06'815.3
2017-May-24 20:00N 36°47' E 012°57'815.4
2017-May-24 19:30N 36°49' E 012°48'815.6
2017-May-24 19:00N 36°52' E 012°39'815.7
2017-May-24 18:29N 36°55' E 012°30'815.3
2017-May-24 17:58N 36°58' E 012°21'715.3
2017-May-24 17:29N 37°01' E 012°12'7714.7
2017-May-24 12:15N 37°28' E 010°42'76414.7
2017-May-22 08:16N 36°01' W 005°06'414.3
2017-May-22 08:01N 36°00' W 005°10'815.1
2017-May-22 07:30N 35°59' W 005°19'815.2
2017-May-22 07:00N 35°57' W 005°28'25211.4
2017-May-21 08:52N 38°09' W 009°57'513.6
2017-May-21 08:30N 38°14' W 009°58'714.0
2017-May-21 08:00N 38°20' W 010°01'2713.8
2017-May-21 06:05N 38°47' W 010°07'613.4
2017-May-21 05:37N 38°53' W 010°07'213.3
2017-May-21 05:29N 38°54' W 010°07'613.4
2017-May-21 05:00N 39°01' W 010°07'713.8
2017-May-21 04:30N 39°08' W 010°08'714.1
2017-May-21 04:00N 39°15' W 010°08'713.7
2017-May-21 03:30N 39°22' W 010°08'713.9
2017-May-21 03:00N 39°29' W 010°08'713.8
2017-May-21 02:30N 39°36' W 010°08'713.9
2017-May-21 02:00N 39°42' W 010°08'713.9
2017-May-21 01:30N 39°49' W 010°09'713.9
2017-May-21 01:00N 39°56' W 010°09'714.0
2017-May-21 00:30N 40°03' W 010°09'714.0
2017-May-21 00:00N 40°10' W 010°09'714.0
2017-May-20 23:30N 40°17' W 010°09'713.8
2017-May-20 23:01N 40°24' W 010°09'713.9
2017-May-20 22:30N 40°31' W 010°09'713.7
2017-May-20 22:00N 40°38' W 010°09'713.8
2017-May-20 21:30N 40°45' W 010°09'713.9
2017-May-20 21:00N 40°52' W 010°09'713.8
2017-May-20 20:30N 40°59' W 010°09'713.9
2017-May-20 20:00N 41°06' W 010°09'714.1
2017-May-20 19:30N 41°13' W 010°09'713.9
2017-May-20 19:00N 41°20' W 010°08'713.8
2017-May-20 18:30N 41°27' W 010°08'714.0
2017-May-20 18:00N 41°34' W 010°08'55412.6
2017-May-18 22:05N 49°39' W 003°45'412.5
2017-May-18 21:44N 49°41' W 003°38'312.5
2017-May-18 21:28N 49°43' W 003°34'612.6
2017-May-18 21:00N 49°46' W 003°26'612.8
2017-May-18 20:30N 49°49' W 003°18'713.1
2017-May-18 19:59N 49°52' W 003°08'613.5
2017-May-18 19:30N 49°55' W 002°60'713.6
2017-May-18 19:00N 49°58' W 002°50'713.8
2017-May-18 18:30N 50°00' W 002°40'8612.4
2017-May-18 11:34N 50°24' W 000°30'112.0
2017-May-18 11:30N 50°24' W 000°29'612.3
2017-May-18 11:00N 50°26' W 000°20'713.1
2017-May-18 10:30N 50°27' W 000°10'713.4
2017-May-18 10:00N 50°29' E 000°00'713.9
2017-May-18 09:30N 50°31' E 000°11'714.4
2017-May-18 09:00N 50°33' E 000°22'714.7
2017-May-18 08:30N 50°35' E 000°33'914.4
2017-May-18 07:55N 50°39' E 000°45'614.2
2017-May-18 07:30N 50°43' E 000°52'713.9
2017-May-18 07:00N 50°47' E 001°01'713.4
2017-May-18 06:29N 50°51' E 001°10'612.8
2017-May-18 06:00N 50°55' E 001°18'612.4
2017-May-18 05:30N 50°59' E 001°24'611.9
2017-May-18 05:00N 51°03' E 001°31'611.2
2017-May-18 04:31N 51°07' E 001°38'611.5
2017-May-18 04:01N 51°11' E 001°44'612.0
2017-May-18 03:30N 51°16' E 001°50'612.8
2017-May-18 03:00N 51°21' E 001°55'611.8
2017-May-18 02:31N 51°24' E 002°04'713.1
2017-May-18 02:01N 51°22' E 002°13'713.2
2017-May-18 01:30N 51°22' E 002°24'813.6
2017-May-18 00:53N 51°23' E 002°37'510.0
2017-May-18 00:21N 51°22' E 002°46'514.2
2017-May-18 00:00N 51°23' E 002°54'713.8
2017-May-17 23:30N 51°24' E 003°05'714.3
2017-May-17 23:01N 51°25' E 003°16'714.3
2017-May-17 22:30N 51°25' E 003°28'611.9
2017-May-17 22:00N 51°26' E 003°37'612.4
2017-May-17 21:30N 51°22' E 003°45'714.0
2017-May-17 21:00N 51°22' E 003°56'4 8.6
2017-May-17 20:30N 51°24' E 004°02'510.7
2017-May-17 20:00N 51°24' E 004°10'510.4
2017-May-17 19:30N 51°20' E 004°16'4 8.1
2017-May-17 19:01N 51°17' E 004°20'0 0.0
2017-May-17 18:31N 51°17' E 004°20'0 0.3
2017-May-17 18:01N 51°17' E 004°20'2 3.5
2017-May-17 17:31N 51°15' E 004°22'1 1.8
2017-May-17 17:00N 51°15' E 004°23'0 0.0
2017-May-17 16:30N 51°15' E 004°23'0 0.0
2017-May-17 16:00N 51°15' E 004°23'0 0.0
2017-May-17 15:30N 51°15' E 004°23'0 0.0
2017-May-17 15:00N 51°15' E 004°23'0 0.0
2017-May-17 14:00N 51°15' E 004°23'0 0.0
2017-May-17 13:30N 51°15' E 004°23'0 0.0
2017-May-17 13:00N 51°15' E 004°23'0 0.0
2017-May-17 12:30N 51°15' E 004°23'0 0.0
2017-May-17 12:00N 51°15' E 004°23'0 0.0
2017-May-17 11:30N 51°15' E 004°23'0 0.0
2017-May-17 11:00N 51°15' E 004°23'0 0.0
2017-May-17 10:30N 51°15' E 004°23'0 0.0
2017-May-17 10:00N 51°15' E 004°23'0 0.0
2017-May-17 09:30N 51°15' E 004°23'0 0.0
2017-May-17 09:00N 51°15' E 004°23'0 0.0
2017-May-17 08:30N 51°15' E 004°23'0 0.0
2017-May-17 08:00N 51°15' E 004°23'0 0.0
2017-May-17 07:30N 51°15' E 004°23'0 0.0
2017-May-17 07:00N 51°15' E 004°23'0 0.0
2017-May-17 06:30N 51°15' E 004°23'0 0.0
2017-May-17 06:00N 51°15' E 004°23'0 0.0
2017-May-17 05:27N 51°15' E 004°23'0 0.0
2017-May-17 05:00N 51°15' E 004°23'0 0.0
2017-May-17 04:30N 51°15' E 004°23'0 0.0
2017-May-17 04:00N 51°15' E 004°23'0 0.0
2017-May-17 03:30N 51°15' E 004°23'0 0.0
2017-May-17 03:00N 51°15' E 004°23'0 0.0
2017-May-17 02:30N 51°15' E 004°23'0 0.0
2017-May-17 02:00N 51°15' E 004°23'0 0.0
2017-May-17 01:30N 51°15' E 004°23'0 0.0
2017-May-17 01:00N 51°15' E 004°23'0 0.0
2017-May-17 00:30N 51°15' E 004°23'0 0.0
2017-May-17 00:00N 51°15' E 004°23'0 0.0
2017-May-16 23:30N 51°15' E 004°23'0 0.0
2017-May-16 23:00N 51°15' E 004°23'0 0.0
2017-May-16 22:30N 51°15' E 004°23'0 0.0
2017-May-16 22:00N 51°15' E 004°23'0 0.0
2017-May-16 21:30N 51°15' E 004°23'0 0.0
2017-May-16 21:00N 51°15' E 004°23'0 0.0
2017-May-16 20:30N 51°15' E 004°23'0 0.0
2017-May-16 20:00N 51°15' E 004°23'0 0.0
2017-May-16 19:30N 51°15' E 004°23'0 0.0
2017-May-16 19:00N 51°15' E 004°23'0 0.0
2017-May-16 18:30N 51°15' E 004°23'0 0.0
2017-May-16 18:00N 51°15' E 004°23'0 0.0
2017-May-16 17:30N 51°15' E 004°23'0 0.0
2017-May-16 17:00N 51°15' E 004°23'0 0.0
2017-May-16 16:30N 51°15' E 004°23'0 0.0
2017-May-16 16:00N 51°15' E 004°23'0 0.0
2017-May-16 15:30N 51°15' E 004°23'0 0.0
2017-May-16 15:00N 51°15' E 004°23'0 0.0
2017-May-16 14:30N 51°15' E 004°23'0 0.0
2017-May-16 13:30N 51°15' E 004°23'0 0.0
2017-May-16 13:00N 51°15' E 004°23'0 0.0
2017-May-16 12:30N 51°15' E 004°23'0 0.0
2017-May-16 12:00N 51°15' E 004°23'0 0.0
2017-May-16 11:30N 51°15' E 004°23'0 0.0
2017-May-16 11:00N 51°15' E 004°23'0 0.0
2017-May-16 10:30N 51°15' E 004°23'0 0.0
2017-May-16 10:00N 51°15' E 004°23'0 0.0
2017-May-16 09:30N 51°15' E 004°23'0 0.0
2017-May-16 09:00N 51°15' E 004°23'0 0.0
2017-May-16 08:30N 51°15' E 004°23'0 0.0
2017-May-16 07:57N 51°15' E 004°23'0 0.0
2017-May-16 07:30N 51°15' E 004°23'0 0.0
2017-May-16 07:00N 51°15' E 004°23'0 0.0
2017-May-16 06:30N 51°15' E 004°23'0 0.0
2017-May-16 06:00N 51°15' E 004°23'0 0.0
2017-May-16 05:30N 51°15' E 004°23'0 0.0
2017-May-16 05:00N 51°15' E 004°23'0 0.0
2017-May-16 04:30N 51°15' E 004°23'0 0.0
2017-May-16 04:00N 51°15' E 004°23'0 0.0
2017-May-16 03:30N 51°15' E 004°23'0 0.0
2017-May-16 03:00N 51°15' E 004°23'0 0.0
2017-May-16 02:30N 51°15' E 004°23'0 0.0
2017-May-16 02:00N 51°15' E 004°23'0 0.0
2017-May-16 01:30N 51°15' E 004°23'0 0.0
2017-May-16 01:00N 51°15' E 004°23'0 0.0
2017-May-16 00:30N 51°15' E 004°23'0 0.0
2017-May-16 00:00N 51°15' E 004°23'0 0.0
2017-May-15 23:30N 51°15' E 004°23'0 0.0
2017-May-15 23:00N 51°15' E 004°23'0 0.0
2017-May-15 22:30N 51°15' E 004°23'0 0.0
2017-May-15 22:00N 51°15' E 004°23'0 0.0
2017-May-15 21:30N 51°15' E 004°23'0 0.0
2017-May-15 21:00N 51°15' E 004°23'0 0.0
2017-May-15 20:30N 51°15' E 004°23'0 0.0
2017-May-15 20:00N 51°15' E 004°23'0 0.0
2017-May-15 19:30N 51°15' E 004°23'0 0.0
2017-May-15 19:00N 51°15' E 004°23'0 0.0
2017-May-15 18:30N 51°15' E 004°23'0 0.0
2017-May-15 18:00N 51°15' E 004°23'0 0.0
2017-May-15 17:30N 51°15' E 004°23'0 0.0
2017-May-15 17:00N 51°15' E 004°23'0 0.0
2017-May-15 16:30N 51°15' E 004°23'0 0.0
2017-May-15 16:00N 51°15' E 004°23'0 0.0
2017-May-15 15:30N 51°15' E 004°23'0 0.0
2017-May-15 15:00N 51°15' E 004°23'0 0.0
2017-May-15 13:59N 51°15' E 004°23'0 0.0
2017-May-15 13:29N 51°15' E 004°23'0 0.0
2017-May-15 12:59N 51°15' E 004°23'0 0.0
2017-May-15 12:29N 51°15' E 004°23'1 1.1
2017-May-15 12:00N 51°15' E 004°22'3 5.5
2017-May-15 11:30N 51°17' E 004°20'4 7.5
2017-May-15 11:01N 51°21' E 004°18'0 0.4
2017-May-15 10:28N 51°21' E 004°17'0 0.0
2017-May-15 09:55N 51°21' E 004°17'1 2.2
2017-May-15 09:30N 51°21' E 004°16'3 6.3
2017-May-15 09:00N 51°23' E 004°13'4 7.8
2017-May-15 08:30N 51°22' E 004°07'4 8.3
2017-May-15 08:01N 51°25' E 004°02'4 7.1
2017-May-15 07:31N 51°23' E 003°57'510.1
2017-May-15 07:00N 51°21' E 003°50'510.8
2017-May-15 06:30N 51°23' E 003°42'  

Dump ship's entire track history